Flight Track Log - Related Links

Times and Time Zones

All times are in EDT time to prevent confusion due to time zone crossing. See the UPS1191 flight status page for this flight to view local times or setup timezone preferences in your user account.

Time Position Orientation Groundspeed Altitude Reporting Facility
EDT Latitude Longitude Course Direction KTS MPH feet Rate Location/Type
Tue 10:30:35 PM 39.8766 -75.2203 66° East 162 186 1,000  Level FlightAware ADS-B
Tue 10:30:51 PM 39.8816 -75.2067 64° Northeast 172 198 1,400 1,111 Climbing FlightAware ADS-B
Tue 10:31:02 PM 39.8858 -75.1956 64° Northeast 185 213 1,500 706 Climbing FlightAware ADS-B
Tue 10:31:08 PM 39.8883 -75.1893 63° Northeast 190 219 1,600 1,000 Climbing FlightAware ADS-B
Tue 10:31:14 PM 39.8913 -75.1836 56° Northeast 200 230 1,700 600 Climbing FlightAware ADS-B
Tue 10:31:18 PM 39.8936 -75.1803 48° Northeast 206 237 1,700  Level FlightAware ADS-B
Tue 10:31:21 PM 39.8958 -75.1778 41° Northeast 213 245 1,700 857 Level FlightAware ADS-B
Tue 10:31:25 PM 39.8992 -75.1749 33° Northeast 220 253 1,800 1,714 Climbing FlightAware ADS-B
Tue 10:31:28 PM 39.9028 -75.1728 24° Northeast 228 262 1,900 1,500 Climbing FlightAware ADS-B
Tue 10:31:33 PM 39.9077 -75.1713 13° North 233 268 2,000 2,000 Climbing FlightAware ADS-B
Tue 10:31:37 PM 39.9117 -75.1708 North 234 269 2,200 3,429 Climbing FlightAware ADS-B
Tue 10:31:40 PM 39.9157 -75.1711 357° North 236 272 2,400 2,571 Climbing FlightAware ADS-B
Tue 10:31:44 PM 39.9193 -75.1719 350° North 238 274 2,500 2,250 Climbing FlightAware ADS-B
Tue 10:31:48 PM 39.9234 -75.1735 343° North 239 275 2,700 3,429 Climbing FlightAware ADS-B
Tue 10:31:51 PM 39.9264 -75.1751 338° Northwest 238 274 2,900 3,429 Climbing FlightAware ADS-B
Tue 10:31:55 PM 39.9304 -75.1780 331° Northwest 237 273 3,100 3,429 Climbing FlightAware ADS-B
Tue 10:31:58 PM 39.9333 -75.1807 324° Northwest 236 272 3,300 3,429 Climbing FlightAware ADS-B
Tue 10:32:02 PM 39.9364 -75.1839 322° Northwest 236 272 3,500 3,429 Climbing FlightAware ADS-B
Tue 10:32:05 PM 39.9390 -75.1872 316° Northwest 236 272 3,700 2,842 Climbing FlightAware ADS-B
Tue 10:32:21 PM 39.9518 -75.2034 316° Northwest 247 284 4,400 2,129 Climbing FlightAware ADS-B
Tue 10:32:36 PM 39.9645 -75.2203 314° West 270 311 4,800 2,200 Climbing FlightAware ADS-B
Tue 10:32:51 PM 39.9781 -75.2375 316° Northwest 277 319 5,500 3,400 Climbing FlightAware ADS-B
Tue 10:33:06 PM 39.9922 -75.2562 315° West 278 320 6,500 3,600 Climbing FlightAware ADS-B
Tue 10:33:16 PM 40.0011 -75.2675 316° Northwest 277 319 7,000 3,300 Climbing FlightAware ADS-B
Tue 10:33:26 PM 40.0109 -75.2797 316° Northwest 281 323 7,600 3,231 Climbing FlightAware ADS-B
Tue 10:33:42 PM 40.0258 -75.2993 315° West 284 327 8,400 3,188 Climbing FlightAware ADS-B
Tue 10:33:58 PM 40.0402 -75.3189 314° West 289 333 9,300 3,120 Climbing FlightAware ADS-B
Tue 10:34:07 PM 40.0485 -75.3301 314° West 289 333 9,700 3,103 Climbing FlightAware ADS-B
Tue 10:34:27 PM 40.0675 -75.3565 313° West 298 343 10,800 2,160 Climbing FlightAware ADS-B
Tue 10:34:57 PM 40.0987 -75.3980 315° West 334 384 11,500 1,627 Climbing FlightAware ADS-B
Tue 10:35:26 PM 40.1316 -75.4389 316° Northwest 359 413 12,400 1,574 Climbing FlightAware ADS-B
Tue 10:35:58 PM 40.1696 -75.4896 314° West 362 417 13,100 1,742 Climbing FlightAware ADS-B
Tue 10:36:28 PM 40.2044 -75.5380 313° West 368 423 14,200 2,066 Climbing FlightAware ADS-B
Tue 10:36:59 PM 40.2412 -75.5894 313° West 387 445 15,200 1,645 Climbing FlightAware ADS-B
Tue 10:37:30 PM 40.2796 -75.6461 312° West 408 470 15,900 1,672 Climbing FlightAware ADS-B
Tue 10:38:00 PM 40.3173 -75.7035 311° West 417 480 16,900 2,066 Climbing FlightAware ADS-B
Tue 10:38:31 PM 40.3559 -75.7623 311° West 423 487 18,000 2,164 Climbing FlightAware ADS-B
Tue 10:39:01 PM 40.3950 -75.8218 311° West 428 493 19,100 2,143 Climbing FlightAware ADS-B
Tue 10:39:13 PM 40.4099 -75.8449 310° West 430 495 19,500 2,100 Climbing FlightAware ADS-B
Tue 10:39:21 PM 40.4199 -75.8631 306° West 431 496 19,800 2,000 Climbing FlightAware ADS-B
Tue 10:39:31 PM 40.4298 -75.8846 301° West 432 497 20,100 2,087 Climbing FlightAware ADS-B
Tue 10:39:44 PM 40.4410 -75.9159 295° West 432 497 20,600 2,000 Climbing FlightAware ADS-B
Tue 10:39:52 PM 40.4466 -75.9367 289° West 433 498 20,800 1,875 Climbing FlightAware ADS-B
Tue 10:40:00 PM 40.4505 -75.9550 286° West 435 501 21,100 1,737 Climbing FlightAware ADS-B
Tue 10:40:30 PM 40.4661 -76.0337 285° West 441 507 21,900 1,645 Climbing FlightAware ADS-B
Tue 10:41:02 PM 40.4818 -76.1152 284° West 445 512 22,800 1,714 Climbing FlightAware ADS-B
Tue 10:41:33 PM 40.4977 -76.1977 284° West 447 514 23,700 1,742 Climbing FlightAware ADS-B
Tue 10:42:04 PM 40.5138 -76.2808 284° West 450 518 24,600 1,645 Climbing FlightAware ADS-B
Tue 10:42:35 PM 40.5294 -76.3613 284° West 449 517 25,400 1,524 Climbing FlightAware ADS-B
Tue 10:43:07 PM 40.5461 -76.4484 284° West 451 519 26,200 1,524 Climbing FlightAware ADS-B
Tue 10:43:38 PM 40.5617 -76.5297 284° West 455 524 27,000 1,548 Climbing FlightAware ADS-B
Tue 10:44:09 PM 40.5776 -76.6136 284° West 454 522 27,800 1,869 Climbing FlightAware ADS-B
Tue 10:44:39 PM 40.5928 -76.6937 284° West 447 514 28,900 1,714 Climbing FlightAware ADS-B
Tue 10:45:12 PM 40.6095 -76.7820 284° West 451 519 29,600 1,219 Climbing FlightAware ADS-B
Tue 10:45:43 PM 40.6246 -76.8630 284° West 453 521 30,200 1,672 Climbing FlightAware ADS-B
Tue 10:46:13 PM 40.6396 -76.9431 284° West 440 506 31,300 1,770 Climbing FlightAware ADS-B
Tue 10:46:44 PM 40.6541 -77.0209 284° West 412 474 32,000 667 Climbing FlightAware ADS-B
Tue 10:47:16 PM 40.6691 -77.1009 284° West 418 481 32,000  Level FlightAware ADS-B
Tue 10:47:48 PM 40.6837 -77.1793 284° West 425 489 32,000  Level FlightAware ADS-B
Tue 10:48:18 PM 40.6980 -77.2569 284° West 428 493 32,000  Level FlightAware ADS-B
Tue 10:49:12 PM 40.7220 -77.3900 283° West 429 494 32,000  Level FlightAware ADS-B
Tue 10:49:57 PM 40.7440 -77.5080 284° West 428 493 32,000  Level FlightAware ADS-B
Tue 10:50:27 PM 40.7570 -77.5840 283° West 429 494 32,000  Level FlightAware ADS-B
Tue 10:51:06 PM 40.7740 -77.6760 284° West 430 495 32,000  Level FlightAware ADS-B
Tue 10:51:41 PM 40.7900 -77.7670 283° West 429 494 32,000  Level FlightAware ADS-B
Tue 10:52:21 PM 40.8080 -77.8700 283° West 428 493 32,000  Level FlightAware ADS-B
Tue 10:52:56 PM 40.8240 -77.9590 283° West 426 490 32,000  Level FlightAware ADS-B
Tue 10:53:31 PM 40.8400 -78.0500 283° West 427 491 32,000  Level FlightAware ADS-B
Tue 10:54:06 PM 40.8550 -78.1380 283° West 426 490 32,000  Level FlightAware ADS-B
Tue 10:54:41 PM 40.8700 -78.2230 283° West 425 489 32,000  Level FlightAware ADS-B
Tue 10:55:16 PM 40.8860 -78.3140 283° West 424 488 32,000  Level FlightAware ADS-B
Tue 10:55:51 PM 40.9000 -78.3960 283° West 424 488 32,000  Level FlightAware ADS-B
Tue 10:56:26 PM 40.9170 -78.4930 283° West 422 486 32,000  Level FlightAware ADS-B
Tue 10:57:01 PM 40.9320 -78.5790 283° West 422 486 32,000  Level FlightAware ADS-B
Tue 10:57:36 PM 40.9460 -78.6620 283° West 422 486 32,000  Level FlightAware ADS-B
Tue 10:58:11 PM 40.9620 -78.7560 283° West 421 484 32,000  Level FlightAware ADS-B
Tue 10:58:46 PM 40.9770 -78.8470 282° West 421 484 32,000  Level FlightAware ADS-B
Tue 10:59:22 PM 40.9920 -78.9360 283° West 420 483 32,000  Level FlightAware ADS-B
Tue 10:59:57 PM 41.0070 -79.0230 283° West 418 481 32,000  Level FlightAware ADS-B
Tue 11:00:47 PM 41.0280 -79.1510 282° West 419 482 32,000  Level FlightAware ADS-B
Tue 11:01:21 PM 41.0400 -79.2290 282° West 419 482 32,000  Level FlightAware ADS-B
Tue 11:02:01 PM 41.0580 -79.3380 282° West 418 481 32,000  Level FlightAware ADS-B
Tue 11:02:31 PM 41.0700 -79.4120 282° West 418 481 32,000  Level FlightAware ADS-B
Tue 11:03:36 PM 41.0960 -79.5750 282° West 418 481 32,000  Level FlightAware ADS-B
Tue 11:04:06 PM 41.1070 -79.6450 282° West 418 481 32,000  Level FlightAware ADS-B
Tue 11:04:56 PM 41.1280 -79.7740 282° West 419 482 32,000  Level FlightAware ADS-B
Tue 11:05:31 PM 41.1410 -79.8580 282° West 419 482 32,000  Level FlightAware ADS-B
Tue 11:06:06 PM 41.1550 -79.9510 281° West 420 483 32,000  Level FlightAware ADS-B
Tue 11:06:41 PM 41.1700 -80.0420 282° West 421 484 32,000  Level FlightAware ADS-B
Tue 11:07:21 PM 41.1850 -80.1380 282° West 421 484 32,000  Level FlightAware ADS-B
Tue 11:07:56 PM 41.2000 -80.2350 282° West 421 484 32,000  Level FlightAware ADS-B
Tue 11:08:36 PM 41.2160 -80.3360 282° West 421 484 32,000  Level FlightAware ADS-B
Tue 11:09:11 PM 41.2290 -80.4190 282° West 421 484 32,000  Level FlightAware ADS-B
Tue 11:09:41 PM 41.2410 -80.4980 281° West 421 484 32,000  Level FlightAware ADS-B
Tue 11:10:21 PM 41.2570 -80.6020 282° West 420 483 32,000  Level FlightAware ADS-B
Tue 11:10:56 PM 41.2700 -80.6920 281° West 420 483 32,000  Level FlightAware ADS-B
Tue 11:11:26 PM 41.2810 -80.7610 282° West 420 483 32,000  Level FlightAware ADS-B
Tue 11:12:02 PM 41.2960 -80.8670 281° West 419 482 32,000  Level FlightAware ADS-B
Tue 11:12:40 PM 41.3110 -80.9630 282° West 419 482 32,000  Level FlightAware ADS-B
Tue 11:13:17 PM 41.3250 -81.0570 281° West 419 482 32,000  Level FlightAware ADS-B
Tue 11:13:48 PM 41.3360 -81.1350 281° West 418 481 32,000  Level FlightAware ADS-B
Tue 11:14:24 PM 41.3500 -81.2260 282° West 418 481 32,000  Level FlightAware ADS-B
Tue 11:14:58 PM 41.3620 -81.3120 281° West 417 480 32,000  Level FlightAware ADS-B
Tue 11:15:33 PM 41.3750 -81.4010 281° West 417 480 32,000  Level FlightAware ADS-B
Tue 11:16:10 PM 41.3880 -81.4940 281° West 417 480 32,000  Level FlightAware ADS-B
Tue 11:16:46 PM 41.4010 -81.5860 281° West 417 480 32,000  Level FlightAware ADS-B
Tue 11:17:18 PM 41.4120 -81.6640 281° West 417 480 32,000  Level FlightAware ADS-B
Tue 11:17:54 PM 41.4260 -81.7580 281° West 417 480 32,000  Level FlightAware ADS-B
Tue 11:18:31 PM 41.4390 -81.8520 280° West 416 479 32,000  Level FlightAware ADS-B
Tue 11:19:02 PM 41.4490 -81.9280 280° West 415 478 32,000  Level FlightAware ADS-B
Tue 11:19:38 PM 41.4620 -82.0200 281° West 415 478 32,000  Level FlightAware ADS-B
Tue 11:20:01 PM 41.4710 -82.0800 281° West 415 478 32,000  Level FlightAware ADS-B
Tue 11:20:51 PM 41.4880 -82.2040 280° West 414 476 32,000  Level FlightAware ADS-B
Tue 11:21:27 PM 41.5000 -82.2970 280° West 415 478 32,000  Level FlightAware ADS-B
Tue 11:21:57 PM 41.5100 -82.3720 280° West 414 476 32,000  Level FlightAware ADS-B
Tue 11:22:23 PM 41.5190 -82.4380 280° West 415 478 32,000  Level FlightAware ADS-B
Tue 11:23:23 PM 41.5400 -82.5900 281° West 415 478 32,000  Level FlightAware ADS-B
Tue 11:23:55 PM 41.5510 -82.6720 280° West 415 478 32,000  Level FlightAware ADS-B
Tue 11:24:31 PM 41.5620 -82.7610 279° West 415 478 32,000  Level FlightAware ADS-B
Tue 11:25:05 PM 41.5740 -82.8460 281° West 415 478 32,000  Level FlightAware ADS-B
Tue 11:25:39 PM 41.5840 -82.9280 279° West 414 476 32,000  Level FlightAware ADS-B
Tue 11:26:17 PM 41.5970 -83.0280 280° West 414 476 32,000  Level FlightAware ADS-B
Tue 11:26:51 PM 41.6090 -83.1140 281° West 414 476 32,000  Level FlightAware ADS-B
Tue 11:27:26 PM 41.6200 -83.2050 279° West 414 476 32,000  Level FlightAware ADS-B
Tue 11:28:02 PM 41.6320 -83.2960 280° West 415 478 32,000  Level FlightAware ADS-B
Tue 11:28:38 PM 41.6430 -83.3880 279° West 415 478 32,000  Level FlightAware ADS-B
Tue 11:29:12 PM 41.6540 -83.4730 280° West 415 478 32,000  Level FlightAware ADS-B
Tue 11:29:48 PM 41.6660 -83.5660 280° West 415 478 32,000  Level FlightAware ADS-B
Tue 11:30:23 PM 41.6770 -83.6510 280° West 415 478 32,000  Level FlightAware ADS-B
Tue 11:30:56 PM 41.6870 -83.7370 279° West 413 475 32,000  Level FlightAware ADS-B
Tue 11:31:32 PM 41.6980 -83.8300 279° West 413 475 32,000  Level FlightAware ADS-B
Tue 11:32:08 PM 41.7080 -83.9210 278° West 413 475 32,000  Level FlightAware ADS-B
Tue 11:32:44 PM 41.7190 -84.0130 279° West 414 476 32,000  Level FlightAware ADS-B
Tue 11:33:16 PM 41.7290 -84.0930 280° West 414 476 32,000  Level FlightAware ADS-B
Tue 11:33:52 PM 41.7400 -84.1870 279° West 414 476 32,000  Level FlightAware ADS-B
Tue 11:34:28 PM 41.7500 -84.2770 279° West 414 476 32,000  Level FlightAware ADS-B
Tue 11:35:00 PM 41.7600 -84.3580 279° West 414 476 32,000  Level FlightAware ADS-B
Tue 11:35:39 PM 41.7710 -84.4570 279° West 414 476 32,000  Level FlightAware ADS-B
Tue 11:36:12 PM 41.7810 -84.5410 279° West 415 478 32,000  Level FlightAware ADS-B
Tue 11:36:47 PM 41.7910 -84.6310 279° West 415 478 32,000  Level FlightAware ADS-B
Tue 11:37:21 PM 41.8020 -84.7190 280° West 416 479 32,000  Level FlightAware ADS-B
Tue 11:37:56 PM 41.8120 -84.8090 279° West 416 479 32,000  Level FlightAware ADS-B
Tue 11:38:32 PM 41.8210 -84.8940 278° West 416 479 32,000  Level FlightAware ADS-B
Tue 11:39:08 PM 41.8320 -84.9900 279° West 415 478 32,000  Level FlightAware ADS-B
Tue 11:39:38 PM 41.8410 -85.0700 279° West 414 476 32,000  Level FlightAware ADS-B
Tue 11:40:20 PM 41.8530 -85.1770 279° West 413 475 32,000  Level FlightAware ADS-B
Tue 11:40:52 PM 41.8620 -85.2590 278° West 413 475 32,000  Level FlightAware ADS-B
Tue 11:41:29 PM 41.8720 -85.3520 278° West 413 475 32,000  Level FlightAware ADS-B
Tue 11:42:04 PM 41.8820 -85.4420 279° West 413 475 32,000  Level FlightAware ADS-B
Tue 11:42:36 PM 41.8900 -85.5230 278° West 414 476 32,000  Level FlightAware ADS-B
Tue 11:43:12 PM 41.9000 -85.6140 278° West 415 478 32,000  Level FlightAware ADS-B
Tue 11:43:46 PM 41.9090 -85.7030 278° West 414 476 32,000  Level FlightAware ADS-B
Tue 11:44:24 PM 41.9190 -85.8000 278° West 414 476 32,000  Level FlightAware ADS-B
Tue 11:44:56 PM 41.9280 -85.8810 279° West 414 476 32,000  Level FlightAware ADS-B
Tue 11:45:32 PM 41.9370 -85.9750 277° West 414 476 32,000  Level FlightAware ADS-B
Tue 11:46:08 PM 41.9460 -86.0650 278° West 414 476 32,000  Level FlightAware ADS-B
Tue 11:46:44 PM 41.9550 -86.1550 278° West 415 478 32,000  Level FlightAware ADS-B
Tue 11:47:16 PM 41.9640 -86.2400 278° West 412 474 32,000 -870 Level FlightAware ADS-B
Tue 11:47:53 PM 41.9730 -86.3320 278° West 410 472 31,000 -2,083 Descending FlightAware ADS-B
Tue 11:48:28 PM 41.9820 -86.4220 278° West 415 478 29,500 -2,789 Descending FlightAware ADS-B
Tue 11:49:04 PM 41.9910 -86.5160 277° West 424 488 27,700 -3,083 Descending FlightAware ADS-B
Tue 11:49:40 PM 42.0000 -86.6110 277° West 433 498 25,800 -2,647 Descending FlightAware ADS-B
Tue 11:50:12 PM 42.0080 -86.6950 277° West 425 489 24,700 -1,588 Descending FlightAware ADS-B
Tue 11:50:48 PM 42.0170 -86.7910 277° West 425 489 24,000 -1,250 Descending FlightAware ADS-B
Tue 11:51:24 PM 42.0260 -86.8850 277° West 417 480 23,200 -2,174 Descending FlightAware ADS-B
Tue 11:51:57 PM 42.0330 -86.9650 277° West 407 468 21,500 -2,609 Descending FlightAware ADS-B
Tue 11:52:33 PM 42.0410 -87.0570 277° West 387 445 20,200 -1,250 Descending FlightAware ADS-B
Tue 11:53:09 PM 42.0490 -87.1410 277° West 360 414 20,000 -167 Descending FlightAware ADS-B
Tue 11:53:45 PM 42.0560 -87.2210 277° West 362 417 20,000 -250 Level FlightAware ADS-B
Tue 11:54:21 PM 42.0630 -87.3010 277° West 359 413 19,700 -1,147 Descending FlightAware ADS-B
Tue 11:54:53 PM 42.0690 -87.3730 276° West 355 409 18,700 -2,118 Descending FlightAware ADS-B
Tue 11:55:29 PM 42.0760 -87.4530 277° West 354 407 17,300 -2,083 Descending FlightAware ADS-B
Tue 11:56:05 PM 42.0830 -87.5300 277° West 350 403 16,200 -1,014 Descending FlightAware ADS-B
Tue 11:56:40 PM 42.0900 -87.6060 277° West 356 410 16,100 -88 Descending FlightAware ADS-B
Tue 11:57:13 PM 42.0970 -87.6800 277° West 351 404 16,100  Level FlightAware ADS-B
Tue 11:57:49 PM 42.1030 -87.7590 276° West 353 406 16,100  Level FlightAware ADS-B
Tue 11:58:20 PM 42.1090 -87.8260 277° West 352 405 16,100  Level FlightAware ADS-B
Tue 11:58:59 PM 42.1170 -87.9110 277° West 351 404 16,100  Level FlightAware ADS-B
Tue 11:59:35 PM 42.1230 -87.9920 276° West 351 404 16,100  Level FlightAware ADS-B
Wed 12:00:07 AM 42.1290 -88.0600 277° West 349 402 16,100  Level FlightAware ADS-B
Wed 12:00:43 AM 42.1360 -88.1390 277° West 351 404 16,100  Level FlightAware ADS-B
Wed 12:01:19 AM 42.1420 -88.2170 276° West 349 402 16,100  Level FlightAware ADS-B
Wed 12:01:53 AM 42.1480 -88.2880 277° West 309 356 16,100 -1,816 Level FlightAware ADS-B
Wed 12:02:35 AM 42.1540 -88.3660 276° West 304 350 13,800 -3,385 Descending FlightAware ADS-B
Wed 12:03:11 AM 42.1600 -88.4360 277° West 304 350 11,700 -2,167 Descending FlightAware ADS-B
Wed 12:03:47 AM 42.1650 -88.5010 276° West 282 325 11,200 -500 Descending FlightAware ADS-B
Wed 12:04:23 AM 42.1700 -88.5620 276° West 277 319 11,100 -72 Descending FlightAware ADS-B
Wed 12:05:10 AM 42.1700 -88.6420 270° West 268 308 11,100 -228 Level FlightAware ADS-B
Wed 12:05:42 AM 42.1640 -88.6930 261° West 251 289 10,800 -1,393 Descending FlightAware ADS-B
Wed 12:06:06 AM 42.1600 -88.7300 262° West 256 295 9,800 -2,500 Descending FlightAware ADS-B
Wed 12:06:18 AM 42.1580 -88.7490 262° West 256 295 9,300 -2,625 Descending FlightAware ADS-B
Wed 12:06:38 AM 42.1540 -88.7810 260° West 256 295 8,400 -2,591 Descending FlightAware ADS-B
Wed 12:07:02 AM 42.1500 -88.8190 262° West 256 295 7,400 -2,625 Descending FlightAware ADS-B
Wed 12:07:10 AM 42.1480 -88.8320 258° West 253 291 7,000 -2,667 Descending FlightAware ADS-B
Wed 12:07:38 AM 42.1430 -88.8740 261° West 236 272 5,800 -3,000 Descending FlightAware ADS-B
Wed 12:07:58 AM 42.1390 -88.9020 259° West 231 266 4,600 -3,375 Descending FlightAware ADS-B
Wed 12:08:10 AM 42.1370 -88.9200 261° West 225 259 4,000 -2,833 Descending FlightAware ADS-B
Wed 12:08:34 AM 42.1320 -88.9520 258° West 215 247 2,900 -1,773 Descending FlightAware ADS-B
Wed 12:08:54 AM 42.1290 -88.9760 260° West 194 223 2,700 -439 Descending FlightAware ADS-B
Wed 12:09:15 AM 42.1270 -88.9980 263° West 171 197 2,600 -150 Descending FlightAware ADS-B
Wed 12:09:34 AM 42.1240 -89.0190 259° West 152 175 2,600 -273 Level FlightAware ADS-B
Wed 12:09:59 AM 42.1220 -89.0410 263° West 141 162 2,400 -667 Descending FlightAware ADS-B
Wed 12:10:19 AM 42.1200 -89.0580 261° West 145 167 2,100 -1,000 Descending FlightAware ADS-B
Wed 12:10:23 AM 42.1200 -89.0620 270° West 148 170 2,000 -500 Descending FlightAware ADS-B
Wed 12:10:31 AM 42.1210 -89.0690 281° West 148 170 2,000 -375 Level FlightAware ADS-B
Wed 12:10:39 AM 42.1250 -89.0760 308° West 148 170 1,900 -316 Descending FlightAware ADS-B
Wed 12:10:50 AM 42.1300 -89.0830 314° West 143 165 1,900 -414 Level FlightAware ADS-B
Wed 12:11:08 AM 42.1400 -89.0920 326° Northwest 143 165 1,700 -692 Descending FlightAware ADS-B
Wed 12:11:16 AM 42.1460 -89.0940 346° North 144 166 1,600 -750 Descending FlightAware ADS-B
Wed 12:11:48 AM 42.1660 -89.0940 360° North 140 161 1,200 -720 Descending FlightAware ADS-B
Wed 12:12:06 AM 42.1760 -89.0920 North 133 153 1,000 -267 Descending FlightAware ADS-B
Wed 12:12:33 AM 42.1900 -89.0900 North 133 153 1,000  Level FlightAware ADS-B

Login

Don't have an account? Register now (free) for customized features, flight alerts, and more!